Terminal Aerodrome Forecast
Issued by NWS Binghamton, NY

Home | Current Version | Previous Version | Text Only | Print | Product List | Glossary On
Versions: 1 2 3 4 5 6 7 8 9 10 11 12 13 14 15 16 17 18 19 20 21 22 23 24 25 26
000
FTUS41 KBGM 061700
TAFSYR
TAF
KSYR 061735Z 0618/0718 22007KT P6SM SCT035
     FM062200 20007KT P6SM BKN200
     FM070900 22005KT P6SM BKN100
     FM071300 24011KT P6SM BKN100=

USA.gov is the U.S. government's official web portal to all federal, state and local government web resources and services.